sensor_id;sensor_type;location;lat;lon;timestamp;P1;durP1;ratioP1;P2;durP2;ratioP2
15883;SDS011;8040;50.254;10.960;2022-09-03T00:00:19;412.08;;;173.48;;
15883;SDS011;8040;50.254;10.960;2022-09-03T00:06:22;408.67;;;170.75;;
15883;SDS011;8040;50.254;10.960;2022-09-03T00:09:16;409.27;;;166.98;;
15883;SDS011;8040;50.254;10.960;2022-09-03T00:12:25;414.13;;;177.35;;
15883;SDS011;8040;50.254;10.960;2022-09-03T00:15:12;442.48;;;218.40;;
15883;SDS011;8040;50.254;10.960;2022-09-03T00:21:19;412.17;;;172.18;;
15883;SDS011;8040;50.254;10.960;2022-09-03T00:24:20;415.90;;;178.02;;
15883;SDS011;8040;50.254;10.960;2022-09-03T00:27:13;408.33;;;162.75;;
15883;SDS011;8040;50.254;10.960;2022-09-03T00:30:04;424.75;;;187.95;;
15883;SDS011;8040;50.254;10.960;2022-09-03T00:33:00;412.50;;;170.52;;
15883;SDS011;8040;50.254;10.960;2022-09-03T00:38:46;411.52;;;168.85;;
15883;SDS011;8040;50.254;10.960;2022-09-03T00:41:35;411.60;;;172.23;;
15883;SDS011;8040;50.254;10.960;2022-09-03T00:44:28;431.48;;;201.30;;
15883;SDS011;8040;50.254;10.960;2022-09-03T00:47:44;412.03;;;168.73;;
15883;SDS011;8040;50.254;10.960;2022-09-03T01:02:48;410.42;;;163.68;;
15883;SDS011;8040;50.254;10.960;2022-09-03T01:05:28;412.10;;;165.45;;
15883;SDS011;8040;50.254;10.960;2022-09-03T01:15:11;409.05;;;159.48;;
15883;SDS011;8040;50.254;10.960;2022-09-03T01:27:14;410.13;;;160.13;;
15883;SDS011;8040;50.254;10.960;2022-09-03T01:30:13;411.48;;;166.80;;
15883;SDS011;8040;50.254;10.960;2022-09-03T01:33:03;432.25;;;196.55;;
15883;SDS011;8040;50.254;10.960;2022-09-03T01:39:04;412.87;;;165.73;;
15883;SDS011;8040;50.254;10.960;2022-09-03T01:42:11;408.75;;;156.25;;
15883;SDS011;8040;50.254;10.960;2022-09-03T01:45:09;417.23;;;175.18;;
15883;SDS011;8040;50.254;10.960;2022-09-03T01:48:13;411.00;;;163.40;;
15883;SDS011;8040;50.254;10.960;2022-09-03T01:51:10;413.02;;;167.63;;
15883;SDS011;8040;50.254;10.960;2022-09-03T02:00:48;419.13;;;174.45;;
15883;SDS011;8040;50.254;10.960;2022-09-03T02:03:39;414.70;;;164.15;;
15883;SDS011;8040;50.254;10.960;2022-09-03T02:06:27;413.33;;;167.25;;
15883;SDS011;8040;50.254;10.960;2022-09-03T02:09:14;407.90;;;155.93;;
15883;SDS011;8040;50.254;10.960;2022-09-03T02:12:13;407.98;;;155.65;;
15883;SDS011;8040;50.254;10.960;2022-09-03T02:15:03;410.20;;;162.63;;
15883;SDS011;8040;50.254;10.960;2022-09-03T02:17:51;411.45;;;163.57;;
15883;SDS011;8040;50.254;10.960;2022-09-03T02:20:39;411.30;;;166.40;;
15883;SDS011;8040;50.254;10.960;2022-09-03T02:23:24;413.05;;;165.73;;
15883;SDS011;8040;50.254;10.960;2022-09-03T02:26:10;412.48;;;165.68;;
15883;SDS011;8040;50.254;10.960;2022-09-03T02:28:57;413.05;;;163.95;;
15883;SDS011;8040;50.254;10.960;2022-09-03T02:31:42;412.08;;;165.10;;
15883;SDS011;8040;50.254;10.960;2022-09-03T02:34:27;411.63;;;160.80;;
15883;SDS011;8040;50.254;10.960;2022-09-03T02:37:13;414.98;;;169.70;;
15883;SDS011;8040;50.254;10.960;2022-09-03T02:39:58;412.73;;;167.07;;
15883;SDS011;8040;50.254;10.960;2022-09-03T02:42:43;411.58;;;161.57;;
15883;SDS011;8040;50.254;10.960;2022-09-03T02:45:28;415.38;;;170.02;;
15883;SDS011;8040;50.254;10.960;2022-09-03T02:48:13;412.50;;;164.45;;
15883;SDS011;8040;50.254;10.960;2022-09-03T02:51:04;433.10;;;192.82;;
15883;SDS011;8040;50.254;10.960;2022-09-03T02:53:48;423.33;;;173.38;;
15883;SDS011;8040;50.254;10.960;2022-09-03T02:56:32;411.13;;;158.23;;
15883;SDS011;8040;50.254;10.960;2022-09-03T02:59:16;412.40;;;161.07;;
15883;SDS011;8040;50.254;10.960;2022-09-03T03:02:01;413.65;;;159.38;;
15883;SDS011;8040;50.254;10.960;2022-09-03T03:04:45;407.37;;;153.50;;
15883;SDS011;8040;50.254;10.960;2022-09-03T03:07:30;435.02;;;191.27;;
15883;SDS011;8040;50.254;10.960;2022-09-03T03:10:18;415.38;;;166.45;;
15883;SDS011;8040;50.254;10.960;2022-09-03T03:13:02;408.83;;;155.82;;
15883;SDS011;8040;50.254;10.960;2022-09-03T03:15:46;427.83;;;183.18;;
15883;SDS011;8040;50.254;10.960;2022-09-03T03:18:31;415.33;;;164.20;;
15883;SDS011;8040;50.254;10.960;2022-09-03T03:21:17;437.55;;;197.70;;
15883;SDS011;8040;50.254;10.960;2022-09-03T03:24:01;413.63;;;160.45;;
15883;SDS011;8040;50.254;10.960;2022-09-03T03:26:46;415.67;;;164.95;;
15883;SDS011;8040;50.254;10.960;2022-09-03T03:29:30;412.67;;;158.70;;
15883;SDS011;8040;50.254;10.960;2022-09-03T03:32:14;412.65;;;161.40;;
15883;SDS011;8040;50.254;10.960;2022-09-03T03:34:58;419.70;;;168.60;;
15883;SDS011;8040;50.254;10.960;2022-09-03T03:37:42;413.35;;;163.30;;
15883;SDS011;8040;50.254;10.960;2022-09-03T03:40:26;431.95;;;191.98;;
15883;SDS011;8040;50.254;10.960;2022-09-03T03:43:10;413.13;;;164.13;;
15883;SDS011;8040;50.254;10.960;2022-09-03T03:45:55;409.35;;;154.80;;
15883;SDS011;8040;50.254;10.960;2022-09-03T03:48:40;433.63;;;191.93;;
15883;SDS011;8040;50.254;10.960;2022-09-03T03:51:24;410.90;;;154.82;;
15883;SDS011;8040;50.254;10.960;2022-09-03T03:54:09;413.90;;;163.20;;
15883;SDS011;8040;50.254;10.960;2022-09-03T03:56:52;413.23;;;158.75;;
15883;SDS011;8040;50.254;10.960;2022-09-03T03:59:37;412.95;;;162.85;;
15883;SDS011;8040;50.254;10.960;2022-09-03T04:02:21;415.98;;;160.90;;
15883;SDS011;8040;50.254;10.960;2022-09-03T04:05:05;415.73;;;165.80;;
15883;SDS011;8040;50.254;10.960;2022-09-03T04:07:48;414.27;;;163.77;;
15883;SDS011;8040;50.254;10.960;2022-09-03T04:10:32;429.27;;;183.95;;
15883;SDS011;8040;50.254;10.960;2022-09-03T04:13:16;412.10;;;156.73;;
15883;SDS011;8040;50.254;10.960;2022-09-03T04:16:08;434.83;;;189.23;;
15883;SDS011;8040;50.254;10.960;2022-09-03T04:18:56;426.92;;;177.77;;
15883;SDS011;8040;50.254;10.960;2022-09-03T04:21:41;422.73;;;177.82;;
15883;SDS011;8040;50.254;10.960;2022-09-03T04:24:25;420.63;;;168.73;;
15883;SDS011;8040;50.254;10.960;2022-09-03T04:27:10;427.58;;;179.98;;
15883;SDS011;8040;50.254;10.960;2022-09-03T04:29:54;411.98;;;156.68;;
15883;SDS011;8040;50.254;10.960;2022-09-03T04:32:38;412.42;;;155.55;;
15883;SDS011;8040;50.254;10.960;2022-09-03T04:35:38;451.30;;;218.17;;
15883;SDS011;8040;50.254;10.960;2022-09-03T04:38:23;412.33;;;155.52;;
15883;SDS011;8040;50.254;10.960;2022-09-03T04:41:08;413.52;;;155.63;;
15883;SDS011;8040;50.254;10.960;2022-09-03T04:43:55;412.60;;;155.35;;
15883;SDS011;8040;50.254;10.960;2022-09-03T04:46:40;410.90;;;152.47;;
15883;SDS011;8040;50.254;10.960;2022-09-03T04:49:24;408.65;;;152.93;;
15883;SDS011;8040;50.254;10.960;2022-09-03T04:52:08;413.60;;;160.50;;
15883;SDS011;8040;50.254;10.960;2022-09-03T04:54:52;436.20;;;188.43;;
15883;SDS011;8040;50.254;10.960;2022-09-03T04:57:36;412.33;;;159.27;;
15883;SDS011;8040;50.254;10.960;2022-09-03T10:59:27;446.98;;;266.13;;
15883;SDS011;8040;50.254;10.960;2022-09-03T11:08:05;422.45;;;197.70;;
15883;SDS011;8040;50.254;10.960;2022-09-03T11:10:56;394.55;;;170.95;;
15883;SDS011;8040;50.254;10.960;2022-09-03T11:13:50;405.98;;;190.95;;
15883;SDS011;8040;50.254;10.960;2022-09-03T11:16:39;396.20;;;176.13;;
15883;SDS011;8040;50.254;10.960;2022-09-03T11:22:38;400.50;;;188.88;;
15883;SDS011;8040;50.254;10.960;2022-09-03T11:25:39;418.88;;;216.77;;
15883;SDS011;8040;50.254;10.960;2022-09-03T11:31:32;399.45;;;197.48;;
15883;SDS011;8040;50.254;10.960;2022-09-03T11:34:46;407.27;;;213.65;;
15883;SDS011;8040;50.254;10.960;2022-09-03T11:37:31;406.97;;;212.43;;
15883;SDS011;8040;50.254;10.960;2022-09-03T11:40:15;403.92;;;202.50;;
15883;SDS011;8040;50.254;10.960;2022-09-03T11:43:10;404.73;;;210.77;;
15883;SDS011;8040;50.254;10.960;2022-09-03T11:46:12;414.88;;;220.18;;
15883;SDS011;8040;50.254;10.960;2022-09-03T11:49:10;401.00;;;206.15;;
15883;SDS011;8040;50.254;10.960;2022-09-03T11:52:00;432.50;;;248.57;;
15883;SDS011;8040;50.254;10.960;2022-09-03T11:54:49;406.80;;;212.60;;
15883;SDS011;8040;50.254;10.960;2022-09-03T11:57:38;409.08;;;216.27;;
15883;SDS011;8040;50.254;10.960;2022-09-03T12:00:25;409.70;;;217.82;;
15883;SDS011;8040;50.254;10.960;2022-09-03T12:03:11;408.80;;;215.00;;
15883;SDS011;8040;50.254;10.960;2022-09-03T12:18:20;454.80;;;285.53;;
15883;SDS011;8040;50.254;10.960;2022-09-03T12:21:07;424.33;;;246.13;;
15883;SDS011;8040;50.254;10.960;2022-09-03T12:23:52;411.42;;;214.25;;
15883;SDS011;8040;50.254;10.960;2022-09-03T12:26:39;412.25;;;213.13;;
15883;SDS011;8040;50.254;10.960;2022-09-03T12:29:25;403.48;;;195.77;;
15883;SDS011;8040;50.254;10.960;2022-09-03T12:32:12;427.33;;;239.60;;
15883;SDS011;8040;50.254;10.960;2022-09-03T12:34:57;420.38;;;228.68;;
15883;SDS011;8040;50.254;10.960;2022-09-03T12:37:42;414.90;;;221.40;;
15883;SDS011;8040;50.254;10.960;2022-09-03T12:40:28;413.98;;;221.65;;
15883;SDS011;8040;50.254;10.960;2022-09-03T12:43:13;421.92;;;237.93;;
15883;SDS011;8040;50.254;10.960;2022-09-03T12:45:59;438.42;;;256.85;;
15883;SDS011;8040;50.254;10.960;2022-09-03T12:48:53;421.63;;;237.65;;
15883;SDS011;8040;50.254;10.960;2022-09-03T12:51:50;419.65;;;241.40;;
15883;SDS011;8040;50.254;10.960;2022-09-03T12:54:39;424.02;;;245.60;;
15883;SDS011;8040;50.254;10.960;2022-09-03T12:57:41;426.98;;;252.70;;
15883;SDS011;8040;50.254;10.960;2022-09-03T13:00:31;427.30;;;242.95;;
15883;SDS011;8040;50.254;10.960;2022-09-03T13:03:22;417.48;;;230.90;;
15883;SDS011;8040;50.254;10.960;2022-09-03T13:06:13;427.20;;;260.67;;
15883;SDS011;8040;50.254;10.960;2022-09-03T13:09:05;418.23;;;241.48;;
15883;SDS011;8040;50.254;10.960;2022-09-03T13:11:52;418.80;;;243.38;;
15883;SDS011;8040;50.254;10.960;2022-09-03T13:14:41;441.53;;;274.93;;
15883;SDS011;8040;50.254;10.960;2022-09-03T13:20:34;421.98;;;233.77;;
15883;SDS011;8040;50.254;10.960;2022-09-03T13:26:44;425.85;;;249.73;;
15883;SDS011;8040;50.254;10.960;2022-09-03T13:32:55;415.30;;;221.30;;
15883;SDS011;8040;50.254;10.960;2022-09-03T13:36:14;417.70;;;238.70;;
15883;SDS011;8040;50.254;10.960;2022-09-03T13:39:04;418.15;;;228.25;;
15883;SDS011;8040;50.254;10.960;2022-09-03T13:42:04;419.27;;;247.07;;
15883;SDS011;8040;50.254;10.960;2022-09-03T13:44:56;447.17;;;282.17;;
15883;SDS011;8040;50.254;10.960;2022-09-03T13:47:51;414.02;;;222.13;;
15883;SDS011;8040;50.254;10.960;2022-09-03T13:51:12;413.33;;;224.80;;
15883;SDS011;8040;50.254;10.960;2022-09-03T13:57:23;463.63;;;298.00;;
15883;SDS011;8040;50.254;10.960;2022-09-03T14:00:25;407.38;;;198.43;;
15883;SDS011;8040;50.254;10.960;2022-09-03T14:03:23;396.23;;;191.45;;
15883;SDS011;8040;50.254;10.960;2022-09-03T14:09:36;409.42;;;218.35;;
15883;SDS011;8040;50.254;10.960;2022-09-03T14:15:35;392.00;;;179.52;;
15883;SDS011;8040;50.254;10.960;2022-09-03T14:21:31;414.98;;;213.45;;
15883;SDS011;8040;50.254;10.960;2022-09-03T14:27:11;378.23;;;159.82;;
15883;SDS011;8040;50.254;10.960;2022-09-03T14:29:59;389.65;;;178.00;;
15883;SDS011;8040;50.254;10.960;2022-09-03T14:42:17;389.85;;;171.88;;
15883;SDS011;8040;50.254;10.960;2022-09-03T14:45:17;386.25;;;171.75;;
15883;SDS011;8040;50.254;10.960;2022-09-03T14:48:08;420.65;;;237.30;;
15883;SDS011;8040;50.254;10.960;2022-09-03T14:54:44;420.98;;;230.20;;
15883;SDS011;8040;50.254;10.960;2022-09-03T14:57:47;393.23;;;191.85;;
15883;SDS011;8040;50.254;10.960;2022-09-03T15:07:35;394.55;;;191.38;;
15883;SDS011;8040;50.254;10.960;2022-09-03T15:10:25;393.20;;;190.98;;
15883;SDS011;8040;50.254;10.960;2022-09-03T15:13:32;395.15;;;189.30;;
15883;SDS011;8040;50.254;10.960;2022-09-03T15:16:36;404.10;;;207.65;;
15883;SDS011;8040;50.254;10.960;2022-09-03T15:34:47;393.13;;;186.35;;
15883;SDS011;8040;50.254;10.960;2022-09-03T15:37:57;393.17;;;185.40;;
15883;SDS011;8040;50.254;10.960;2022-09-03T15:43:32;405.52;;;206.30;;
15883;SDS011;8040;50.254;10.960;2022-09-03T15:46:51;404.43;;;205.17;;
15883;SDS011;8040;50.254;10.960;2022-09-03T15:52:40;412.60;;;226.07;;
15883;SDS011;8040;50.254;10.960;2022-09-03T15:55:42;409.23;;;218.93;;
15883;SDS011;8040;50.254;10.960;2022-09-03T15:58:30;408.80;;;211.35;;
15883;SDS011;8040;50.254;10.960;2022-09-03T16:01:24;403.05;;;208.70;;
15883;SDS011;8040;50.254;10.960;2022-09-03T16:10:22;414.97;;;231.60;;
15883;SDS011;8040;50.254;10.960;2022-09-03T16:13:38;396.67;;;194.75;;
15883;SDS011;8040;50.254;10.960;2022-09-03T16:26:14;396.60;;;193.63;;
15883;SDS011;8040;50.254;10.960;2022-09-03T16:29:16;395.13;;;189.45;;
15883;SDS011;8040;50.254;10.960;2022-09-03T16:32:05;393.42;;;186.10;;
15883;SDS011;8040;50.254;10.960;2022-09-03T16:35:13;391.40;;;182.73;;
15883;SDS011;8040;50.254;10.960;2022-09-03T16:38:18;408.00;;;211.70;;
15883;SDS011;8040;50.254;10.960;2022-09-03T16:44:22;398.15;;;193.85;;
15883;SDS011;8040;50.254;10.960;2022-09-03T16:47:32;397.60;;;189.83;;
15883;SDS011;8040;50.254;10.960;2022-09-03T16:50:47;396.05;;;185.55;;
15883;SDS011;8040;50.254;10.960;2022-09-03T17:00:13;382.45;;;159.85;;
15883;SDS011;8040;50.254;10.960;2022-09-03T17:03:02;387.63;;;164.05;;
15883;SDS011;8040;50.254;10.960;2022-09-03T17:18:00;392.58;;;177.95;;
15883;SDS011;8040;50.254;10.960;2022-09-03T17:21:04;385.47;;;160.67;;
15883;SDS011;8040;50.254;10.960;2022-09-03T17:30:18;426.73;;;240.60;;
15883;SDS011;8040;50.254;10.960;2022-09-03T17:36:25;403.33;;;188.27;;
15883;SDS011;8040;50.254;10.960;2022-09-03T17:45:40;380.70;;;147.43;;
15883;SDS011;8040;50.254;10.960;2022-09-03T17:48:38;379.50;;;151.98;;
15883;SDS011;8040;50.254;10.960;2022-09-03T17:51:43;404.30;;;187.25;;
15883;SDS011;8040;50.254;10.960;2022-09-03T17:57:37;377.88;;;147.15;;
15883;SDS011;8040;50.254;10.960;2022-09-03T18:00:37;377.25;;;143.30;;
15883;SDS011;8040;50.254;10.960;2022-09-03T18:03:50;376.38;;;143.32;;
15883;SDS011;8040;50.254;10.960;2022-09-03T18:15:30;387.05;;;164.85;;
15883;SDS011;8040;50.254;10.960;2022-09-03T18:18:27;414.02;;;199.50;;
15883;SDS011;8040;50.254;10.960;2022-09-03T18:21:16;378.85;;;147.77;;
15883;SDS011;8040;50.254;10.960;2022-09-03T18:24:32;388.10;;;159.73;;
15883;SDS011;8040;50.254;10.960;2022-09-03T18:27:49;395.67;;;184.50;;
15883;SDS011;8040;50.254;10.960;2022-09-03T18:30:59;393.03;;;180.53;;
15883;SDS011;8040;50.254;10.960;2022-09-03T18:34:02;381.15;;;147.15;;
15883;SDS011;8040;50.254;10.960;2022-09-03T18:37:06;372.10;;;138.52;;
15883;SDS011;8040;50.254;10.960;2022-09-03T18:40:13;393.63;;;163.30;;
15883;SDS011;8040;50.254;10.960;2022-09-03T18:43:32;376.20;;;142.43;;
15883;SDS011;8040;50.254;10.960;2022-09-03T18:54:38;393.65;;;165.15;;
15883;SDS011;8040;50.254;10.960;2022-09-03T18:58:00;372.05;;;137.70;;
15883;SDS011;8040;50.254;10.960;2022-09-03T19:21:01;396.52;;;166.55;;
15883;SDS011;8040;50.254;10.960;2022-09-03T19:24:10;408.50;;;189.05;;
15883;SDS011;8040;50.254;10.960;2022-09-03T19:30:20;384.75;;;158.65;;
15883;SDS011;8040;50.254;10.960;2022-09-03T19:33:34;395.35;;;173.23;;
15883;SDS011;8040;50.254;10.960;2022-09-03T19:36:59;396.25;;;173.07;;
15883;SDS011;8040;50.254;10.960;2022-09-03T19:46:55;400.45;;;184.77;;
15883;SDS011;8040;50.254;10.960;2022-09-03T19:50:10;399.27;;;179.48;;
15883;SDS011;8040;50.254;10.960;2022-09-03T19:53:21;408.75;;;197.25;;
15883;SDS011;8040;50.254;10.960;2022-09-03T19:56:28;411.85;;;204.73;;
15883;SDS011;8040;50.254;10.960;2022-09-03T19:59:38;409.67;;;201.57;;
15883;SDS011;8040;50.254;10.960;2022-09-03T20:02:42;405.43;;;189.90;;
15883;SDS011;8040;50.254;10.960;2022-09-03T20:05:49;433.65;;;230.82;;
15883;SDS011;8040;50.254;10.960;2022-09-03T20:08:53;398.38;;;179.73;;
15883;SDS011;8040;50.254;10.960;2022-09-03T20:12:03;402.85;;;187.75;;
15883;SDS011;8040;50.254;10.960;2022-09-03T20:14:50;401.55;;;179.90;;
15883;SDS011;8040;50.254;10.960;2022-09-03T20:17:38;399.33;;;178.27;;
15883;SDS011;8040;50.254;10.960;2022-09-03T20:21:07;425.40;;;219.52;;
15883;SDS011;8040;50.254;10.960;2022-09-03T20:35:51;396.87;;;182.37;;
15883;SDS011;8040;50.254;10.960;2022-09-03T20:45:03;404.25;;;188.68;;
15883;SDS011;8040;50.254;10.960;2022-09-03T20:51:19;493.50;;;327.70;;
